createdAt,value
2022-07-31T00:01:20.769Z,5.28
2022-07-31T00:03:25.437Z,6.78
2022-07-31T00:05:30.152Z,5.80
2022-07-31T00:07:39.094Z,5.45
2022-07-31T00:09:49.246Z,5.10
2022-07-31T00:11:58.681Z,5.03
2022-07-31T00:14:07.370Z,5.15
2022-07-31T00:16:11.757Z,4.60
2022-07-31T00:18:16.462Z,4.97
2022-07-31T00:20:25.289Z,5.25
2022-07-31T00:22:30.168Z,5.50
2022-07-31T00:24:34.896Z,5.00
2022-07-31T00:26:44.076Z,4.28
2022-07-31T00:28:49.167Z,4.88
2022-07-31T00:30:53.936Z,4.47
2022-07-31T00:32:58.486Z,4.45
2022-07-31T00:35:03.011Z,4.50
2022-07-31T00:37:07.691Z,4.78
2022-07-31T00:39:14.583Z,4.85
2022-07-31T00:41:19.069Z,5.28
2022-07-31T00:43:24.024Z,5.00
2022-07-31T00:45:35.936Z,5.18
2022-07-31T00:47:42.472Z,4.55
2022-07-31T00:49:47.438Z,4.72
2022-07-31T00:51:53.719Z,4.82
2022-07-31T00:53:58.416Z,4.88
2022-07-31T00:56:02.862Z,4.88
2022-07-31T00:58:10.116Z,4.85
2022-07-31T01:00:15.473Z,4.47
2022-07-31T01:02:20.074Z,4.55
2022-07-31T01:04:25.001Z,5.00
2022-07-31T01:06:30.225Z,4.50
2022-07-31T01:08:34.694Z,4.55
2022-07-31T01:11:10.083Z,4.15
2022-07-31T01:13:42.329Z,3.53
2022-07-31T01:15:47.116Z,3.85
2022-07-31T01:17:51.728Z,3.85
2022-07-31T01:19:56.545Z,4.18
2022-07-31T01:22:33.362Z,4.05
2022-07-31T01:25:06.516Z,4.35
2022-07-31T01:27:32.647Z,4.50
2022-07-31T01:29:57.672Z,4.10
2022-07-31T01:32:14.882Z,4.78
2022-07-31T01:34:44.164Z,4.43
2022-07-31T01:36:53.289Z,4.25
2022-07-31T01:39:00.091Z,4.32
2022-07-31T01:41:05.965Z,3.78
2022-07-31T01:43:16.471Z,4.22
2022-07-31T01:45:22.863Z,3.90
2022-07-31T01:47:30.292Z,4.05
2022-07-31T01:49:34.987Z,3.70
2022-07-31T01:51:42.316Z,3.85
2022-07-31T01:53:48.144Z,3.50
2022-07-31T01:56:03.714Z,3.83
2022-07-31T01:58:12.668Z,3.78
2022-07-31T02:00:33.676Z,4.13
2022-07-31T02:02:42.277Z,3.50
2022-07-31T02:04:48.253Z,3.78
2022-07-31T02:06:54.699Z,4.25
2022-07-31T02:08:59.628Z,4.25
2022-07-31T02:11:06.044Z,4.50
2022-07-31T02:13:15.372Z,4.30
2022-07-31T02:15:19.967Z,4.78
2022-07-31T02:17:28.034Z,4.55
2022-07-31T02:19:52.535Z,4.70
2022-07-31T02:22:06.271Z,4.30
2022-07-31T02:24:13.085Z,4.35
2022-07-31T02:26:20.019Z,4.03
2022-07-31T02:28:24.539Z,4.50
2022-07-31T02:30:39.646Z,4.47
2022-07-31T02:32:50.021Z,4.50
2022-07-31T02:34:56.880Z,4.50
2022-07-31T02:37:04.125Z,5.30
2022-07-31T02:39:10.801Z,4.75
2022-07-31T02:41:15.557Z,4.55
2022-07-31T02:43:22.380Z,4.13
2022-07-31T02:45:27.619Z,4.28
2022-07-31T02:47:32.604Z,4.32
2022-07-31T02:49:41.956Z,4.15
2022-07-31T02:51:46.934Z,4.43
2022-07-31T02:53:52.477Z,3.88
2022-07-31T02:56:01.295Z,4.20
2022-07-31T02:58:10.086Z,4.78
2022-07-31T03:00:24.043Z,4.60
2022-07-31T03:02:36.911Z,4.07
2022-07-31T03:04:43.158Z,4.28
2022-07-31T03:06:49.662Z,4.25
2022-07-31T03:08:56.290Z,4.18
2022-07-31T03:11:02.041Z,4.53
2022-07-31T03:13:06.774Z,4.40
2022-07-31T03:15:14.216Z,4.43
2022-07-31T03:17:21.013Z,4.38
2022-07-31T03:19:25.788Z,4.78
2022-07-31T03:21:32.622Z,4.60
2022-07-31T03:23:39.190Z,4.70
2022-07-31T03:25:53.913Z,4.68
2022-07-31T03:28:01.245Z,4.90
2022-07-31T03:30:08.388Z,4.68
2022-07-31T03:32:13.517Z,4.65
2022-07-31T03:34:18.351Z,4.55
2022-07-31T03:36:26.105Z,4.57
2022-07-31T03:38:42.144Z,4.20
2022-07-31T03:41:04.191Z,4.15
2022-07-31T03:43:10.386Z,4.50
2022-07-31T03:45:16.228Z,4.05
2022-07-31T03:47:23.442Z,4.43
2022-07-31T03:49:28.496Z,4.28
2022-07-31T03:51:33.599Z,4.50
2022-07-31T03:53:39.965Z,4.50
2022-07-31T03:55:45.147Z,4.25
2022-07-31T03:57:50.171Z,4.68
2022-07-31T04:00:00.021Z,4.20
2022-07-31T04:02:10.318Z,4.70
2022-07-31T04:04:19.876Z,4.40
2022-07-31T04:06:37.096Z,4.25
2022-07-31T04:08:42.054Z,4.68
2022-07-31T04:10:47.295Z,4.72
2022-07-31T04:12:55.497Z,4.60
2022-07-31T04:15:03.293Z,4.70
2022-07-31T04:17:08.044Z,4.47
2022-07-31T04:19:13.244Z,4.35
2022-07-31T04:21:17.786Z,5.18
2022-07-31T04:23:22.742Z,4.88
2022-07-31T04:25:51.323Z,4.55
2022-07-31T04:28:10.207Z,5.63
2022-07-31T04:30:16.584Z,4.63
2022-07-31T04:32:25.413Z,5.45
2022-07-31T04:34:35.126Z,5.47
2022-07-31T04:36:43.705Z,5.28
2022-07-31T04:38:48.205Z,5.53
2022-07-31T04:40:54.993Z,5.50
2022-07-31T04:42:59.521Z,5.50
2022-07-31T04:45:04.700Z,5.60
2022-07-31T04:47:11.673Z,4.95
2022-07-31T04:49:20.130Z,6.32
2022-07-31T04:51:26.854Z,5.78
2022-07-31T04:53:31.356Z,5.97
2022-07-31T04:55:36.244Z,6.15
2022-07-31T04:57:41.955Z,5.63
2022-07-31T04:59:59.663Z,5.30
2022-07-31T05:02:08.427Z,6.13
2022-07-31T05:04:16.278Z,5.82
2022-07-31T05:06:21.214Z,6.38
2022-07-31T05:08:25.751Z,5.50
2022-07-31T05:10:44.971Z,6.10
2022-07-31T05:12:53.003Z,6.57
2022-07-31T05:14:57.582Z,6.18
2022-07-31T05:17:05.372Z,6.75
2022-07-31T05:19:31.388Z,7.72
2022-07-31T05:21:53.123Z,7.25
2022-07-31T05:24:22.693Z,7.18
2022-07-31T05:26:48.062Z,7.32
2022-07-31T05:28:58.126Z,7.25
2022-07-31T05:31:05.585Z,7.20
2022-07-31T05:33:10.258Z,7.10
2022-07-31T05:35:17.154Z,7.28
2022-07-31T05:37:21.812Z,7.40
2022-07-31T05:39:26.538Z,6.72
2022-07-31T05:41:52.432Z,6.88
2022-07-31T05:44:18.637Z,7.40
2022-07-31T05:46:26.191Z,6.72
2022-07-31T05:48:30.804Z,6.97
2022-07-31T05:50:38.020Z,7.13
2022-07-31T05:52:42.352Z,7.10
2022-07-31T05:54:59.838Z,7.50
2022-07-31T05:57:32.868Z,6.80
2022-07-31T05:59:42.028Z,6.65
2022-07-31T06:01:47.619Z,7.18
2022-07-31T06:03:52.733Z,7.40
2022-07-31T06:06:02.771Z,6.95
2022-07-31T06:08:07.485Z,7.15
2022-07-31T06:10:17.827Z,6.75
2022-07-31T06:12:24.412Z,7.03
2022-07-31T06:14:29.383Z,6.60
2022-07-31T06:16:51.930Z,6.00
2022-07-31T06:18:58.033Z,6.63
2022-07-31T06:21:04.022Z,7.40
2022-07-31T06:23:19.905Z,6.95
2022-07-31T06:25:38.893Z,7.00
2022-07-31T06:27:44.229Z,6.30
2022-07-31T06:29:57.385Z,6.82
2022-07-31T06:32:03.863Z,6.93
2022-07-31T06:34:09.240Z,6.93
2022-07-31T06:36:18.682Z,6.90
2022-07-31T06:38:32.306Z,6.53
2022-07-31T06:40:48.904Z,7.15
2022-07-31T06:45:49.835Z,6.75
2022-07-31T06:48:18.290Z,6.68
2022-07-31T06:50:29.469Z,7.10
2022-07-31T06:52:55.287Z,6.57
2022-07-31T06:55:04.291Z,6.95
2022-07-31T06:57:09.394Z,6.05
2022-07-31T06:59:39.097Z,6.45
2022-07-31T07:01:40.675Z,6.60
2022-07-31T07:03:45.455Z,6.18
2022-07-31T07:05:51.894Z,6.03
2022-07-31T07:07:57.918Z,5.10
2022-07-31T07:10:02.605Z,4.93
2022-07-31T07:12:21.315Z,4.72
2022-07-31T07:14:29.559Z,4.55
2022-07-31T07:16:33.994Z,4.65
2022-07-31T07:18:44.003Z,4.35
2022-07-31T07:20:51.257Z,4.32
2022-07-31T07:22:55.566Z,4.65
2022-07-31T07:25:21.435Z,3.63
2022-07-31T07:27:30.843Z,4.28
2022-07-31T07:29:35.762Z,3.55
2022-07-31T07:31:42.341Z,3.42
2022-07-31T07:33:49.964Z,3.20
2022-07-31T07:36:00.885Z,3.50
2022-07-31T07:38:07.352Z,3.10
2022-07-31T07:40:14.804Z,2.90
2022-07-31T07:42:19.918Z,11.93
2022-07-31T07:44:28.944Z,7.07
2022-07-31T07:46:35.244Z,6.55
2022-07-31T07:48:41.286Z,3.63
2022-07-31T07:50:54.611Z,5.10
2022-07-31T07:53:08.210Z,3.78
2022-07-31T07:55:27.879Z,2.60
2022-07-31T07:57:56.442Z,2.28
2022-07-31T08:00:20.583Z,2.90
2022-07-31T08:02:32.029Z,1.92
2022-07-31T08:04:38.572Z,2.58
2022-07-31T08:06:43.748Z,2.30
2022-07-31T08:08:48.360Z,2.15
2022-07-31T08:11:05.926Z,2.03
2022-07-31T08:13:31.852Z,1.98
2022-07-31T08:15:48.897Z,2.10
2022-07-31T08:18:05.649Z,2.35
2022-07-31T08:20:13.733Z,2.40
2022-07-31T08:22:18.191Z,6.20
2022-07-31T08:24:22.948Z,4.20
2022-07-31T08:26:29.782Z,3.90
2022-07-31T08:28:37.492Z,3.60
2022-07-31T08:30:43.475Z,3.10
2022-07-31T08:32:51.872Z,2.80
2022-07-31T08:35:15.851Z,3.05
2022-07-31T08:38:01.304Z,3.00
2022-07-31T08:39:51.896Z,2.60
2022-07-31T08:41:56.474Z,2.67
2022-07-31T08:44:04.383Z,2.95
2022-07-31T08:46:11.916Z,2.85
2022-07-31T08:48:17.197Z,2.72
2022-07-31T08:50:26.549Z,2.75
2022-07-31T08:52:35.589Z,3.00
2022-07-31T08:54:54.722Z,3.65
2022-07-31T08:57:04.495Z,3.70
2022-07-31T08:59:10.246Z,3.47
2022-07-31T09:01:17.116Z,2.67
2022-07-31T09:03:23.939Z,2.72
2022-07-31T09:05:42.679Z,3.00
2022-07-31T09:07:50.446Z,2.60
2022-07-31T09:09:58.923Z,2.72
2022-07-31T09:12:04.711Z,3.05
2022-07-31T09:14:36.223Z,3.15
2022-07-31T09:16:51.260Z,3.08
2022-07-31T09:19:03.760Z,3.13
2022-07-31T09:21:28.711Z,3.28
2022-07-31T09:23:35.031Z,3.20
2022-07-31T09:25:39.568Z,3.25
2022-07-31T09:27:44.334Z,3.78
2022-07-31T09:29:50.936Z,3.67
2022-07-31T09:32:15.021Z,4.00
2022-07-31T09:34:39.549Z,4.40
2022-07-31T09:36:49.642Z,4.15
2022-07-31T09:39:27.184Z,4.15
2022-07-31T09:42:00.140Z,4.30
2022-07-31T09:44:43.681Z,4.22
2022-07-31T09:46:49.308Z,3.85
2022-07-31T09:48:56.685Z,4.32
2022-07-31T09:51:11.429Z,6.00
2022-07-31T09:53:16.286Z,7.47
2022-07-31T09:55:27.041Z,6.65
2022-07-31T09:57:31.813Z,5.20
2022-07-31T09:59:37.265Z,4.88
2022-07-31T10:01:44.868Z,5.00
2022-07-31T10:03:51.508Z,4.50
2022-07-31T10:05:56.458Z,9.02
2022-07-31T10:08:04.095Z,6.60
2022-07-31T10:10:25.893Z,7.82
2022-07-31T10:12:53.050Z,7.03
2022-07-31T10:14:59.449Z,6.55
2022-07-31T10:17:05.763Z,7.13
2022-07-31T10:19:33.542Z,7.68
2022-07-31T10:21:56.557Z,7.70
2022-07-31T10:24:06.301Z,7.93
2022-07-31T10:26:10.710Z,8.30
2022-07-31T10:28:18.383Z,8.93
2022-07-31T10:30:28.183Z,9.60
2022-07-31T10:32:36.498Z,9.23
2022-07-31T10:34:53.135Z,9.07
2022-07-31T10:37:47.860Z,9.52
2022-07-31T10:40:32.503Z,7.13
2022-07-31T10:43:01.367Z,8.10
2022-07-31T10:45:09.899Z,8.32
2022-07-31T10:47:24.849Z,9.15
2022-07-31T10:49:52.511Z,7.97
2022-07-31T10:51:57.268Z,7.45
2022-07-31T10:54:15.280Z,7.40
2022-07-31T10:56:43.731Z,7.57
2022-07-31T10:59:02.659Z,7.43
2022-07-31T11:01:27.555Z,7.43
2022-07-31T11:03:54.451Z,6.70
2022-07-31T11:06:11.131Z,5.97
2022-07-31T11:08:27.770Z,6.25
2022-07-31T11:10:41.982Z,6.75
2022-07-31T11:13:02.539Z,6.22
2022-07-31T11:15:23.632Z,6.40
2022-07-31T11:18:20.173Z,6.20
2022-07-31T11:20:32.390Z,6.47
2022-07-31T11:22:36.739Z,6.43
2022-07-31T11:24:41.561Z,6.03
2022-07-31T11:27:02.689Z,7.03
2022-07-31T11:29:58.625Z,5.53
2022-07-31T11:31:32.337Z,5.63
2022-07-31T11:33:44.933Z,5.43
2022-07-31T11:35:49.469Z,5.68
2022-07-31T11:37:58.503Z,5.63
2022-07-31T11:40:07.134Z,5.80
2022-07-31T11:42:11.627Z,5.75
2022-07-31T11:44:23.804Z,5.47
2022-07-31T11:46:34.306Z,6.10
2022-07-31T11:48:44.959Z,5.10
2022-07-31T11:50:50.875Z,5.68
2022-07-31T11:53:04.687Z,5.25
2022-07-31T11:55:12.753Z,5.00
2022-07-31T11:57:19.383Z,4.90
2022-07-31T11:59:45.411Z,4.97
2022-07-31T12:01:52.014Z,4.85
2022-07-31T12:04:07.623Z,5.00
2022-07-31T12:06:14.174Z,4.88
2022-07-31T12:08:19.364Z,4.45
2022-07-31T12:10:23.963Z,4.75
2022-07-31T12:12:42.481Z,4.38
2022-07-31T12:14:46.845Z,4.75
2022-07-31T12:19:11.143Z,5.00
2022-07-31T12:21:15.568Z,4.07
2022-07-31T12:23:40.949Z,4.50
2022-07-31T12:25:51.342Z,4.50
2022-07-31T12:27:57.036Z,4.82
2022-07-31T12:30:03.948Z,5.03
2022-07-31T12:32:09.903Z,4.90
2022-07-31T12:34:26.463Z,4.57
2022-07-31T12:36:32.982Z,4.90
2022-07-31T12:38:44.738Z,5.18
2022-07-31T12:41:03.004Z,5.25
2022-07-31T12:43:08.324Z,4.88
2022-07-31T12:45:20.094Z,4.75
2022-07-31T12:47:31.943Z,4.30
2022-07-31T12:49:37.903Z,4.93
2022-07-31T12:51:47.678Z,4.90
2022-07-31T12:53:52.582Z,4.82
2022-07-31T12:55:59.457Z,4.65
2022-07-31T12:58:06.204Z,4.25
2022-07-31T13:00:11.840Z,4.68
2022-07-31T13:02:16.707Z,4.72
2022-07-31T13:04:22.975Z,4.30
2022-07-31T13:06:29.765Z,4.45
2022-07-31T13:08:34.637Z,4.40
2022-07-31T13:10:41.006Z,4.53
2022-07-31T13:12:45.475Z,4.35
2022-07-31T13:14:52.271Z,4.60
2022-07-31T13:16:58.477Z,4.18
2022-07-31T13:19:03.157Z,4.80
2022-07-31T13:21:07.833Z,4.35
2022-07-31T13:23:13.880Z,4.50
2022-07-31T13:25:19.300Z,4.32
2022-07-31T13:27:26.841Z,4.55
2022-07-31T13:29:33.294Z,5.05
2022-07-31T13:31:38.144Z,4.70
2022-07-31T13:33:44.978Z,4.75
2022-07-31T13:35:51.300Z,5.30
2022-07-31T13:37:56.190Z,4.93
2022-07-31T13:40:00.843Z,5.00
2022-07-31T13:42:07.214Z,4.63
2022-07-31T13:44:13.347Z,4.75
2022-07-31T13:46:17.640Z,4.47
2022-07-31T13:48:22.496Z,5.00
2022-07-31T13:50:26.771Z,4.80
2022-07-31T13:52:33.195Z,4.22
2022-07-31T13:54:39.511Z,4.30
2022-07-31T13:56:43.984Z,4.80
2022-07-31T13:58:48.419Z,4.63
2022-07-31T14:00:55.611Z,4.57
2022-07-31T14:03:00.102Z,4.28
2022-07-31T14:05:07.414Z,5.10
2022-07-31T14:07:14.015Z,5.80
2022-07-31T14:09:18.796Z,5.88
2022-07-31T14:11:25.187Z,6.57
2022-07-31T14:13:31.712Z,6.25
2022-07-31T14:15:36.201Z,6.00
2022-07-31T14:17:40.930Z,5.78
2022-07-31T14:19:46.018Z,6.40
2022-07-31T14:21:56.655Z,6.80
2022-07-31T14:24:04.035Z,5.57
2022-07-31T14:26:13.128Z,5.15
2022-07-31T14:28:18.064Z,5.40
2022-07-31T14:30:24.711Z,5.53
2022-07-31T14:32:32.593Z,4.93
2022-07-31T14:34:37.250Z,5.22
2022-07-31T14:36:41.770Z,5.18
2022-07-31T14:38:48.391Z,4.65
2022-07-31T14:40:52.785Z,4.93
2022-07-31T14:42:59.388Z,5.60
2022-07-31T14:45:07.794Z,4.63
2022-07-31T14:47:12.797Z,5.40
2022-07-31T14:49:19.253Z,5.10
2022-07-31T14:51:26.101Z,4.90
2022-07-31T14:53:30.821Z,4.88
2022-07-31T14:55:37.371Z,5.47
2022-07-31T14:57:43.999Z,5.13
2022-07-31T14:59:48.427Z,4.65
2022-07-31T15:01:55.166Z,5.28
2022-07-31T15:04:00.038Z,4.90
2022-07-31T15:06:53.672Z,4.82
2022-07-31T15:08:31.674Z,5.85
2022-07-31T15:10:38.112Z,5.47
2022-07-31T15:12:42.770Z,5.70
2022-07-31T15:14:49.216Z,6.13
2022-07-31T15:16:55.503Z,6.32
2022-07-31T15:19:00.475Z,6.35
2022-07-31T15:21:07.007Z,6.88
2022-07-31T15:23:16.304Z,5.75
2022-07-31T15:25:20.871Z,6.60
2022-07-31T15:27:29.297Z,5.80
2022-07-31T15:30:00.694Z,5.82
2022-07-31T15:32:00.528Z,5.72
2022-07-31T15:34:07.117Z,6.18
2022-07-31T15:36:15.245Z,5.97
2022-07-31T15:38:20.218Z,5.38
2022-07-31T15:40:25.933Z,5.38
2022-07-31T15:42:33.000Z,5.00
2022-07-31T15:44:37.501Z,5.30
2022-07-31T15:46:42.230Z,5.50
2022-07-31T15:48:47.182Z,5.32
2022-07-31T15:50:52.028Z,4.85
2022-07-31T15:52:57.839Z,4.78
2022-07-31T15:55:04.442Z,5.35
2022-07-31T15:57:08.976Z,4.68
2022-07-31T15:59:15.438Z,4.95
2022-07-31T16:01:21.806Z,4.90
2022-07-31T16:03:47.212Z,5.60
2022-07-31T16:05:55.843Z,4.95
2022-07-31T16:08:28.878Z,5.28
2022-07-31T16:10:29.563Z,5.30
2022-07-31T16:12:36.073Z,4.95
2022-07-31T16:14:42.637Z,5.38
2022-07-31T16:16:46.993Z,5.60
2022-07-31T16:18:58.686Z,6.28
2022-07-31T16:21:04.999Z,5.57
2022-07-31T16:23:14.332Z,5.15
2022-07-31T16:25:19.905Z,5.97
2022-07-31T16:27:26.557Z,6.10
2022-07-31T16:29:59.839Z,6.22
2022-07-31T16:31:59.655Z,6.35
2022-07-31T16:34:05.827Z,5.90
2022-07-31T16:36:10.580Z,6.43
2022-07-31T16:38:17.695Z,6.47
2022-07-31T16:40:28.876Z,6.63
2022-07-31T16:42:36.245Z,6.63
2022-07-31T16:44:42.598Z,6.60
2022-07-31T16:46:54.244Z,6.00
2022-07-31T16:48:59.229Z,7.10
2022-07-31T16:51:04.499Z,6.80
2022-07-31T16:53:13.597Z,6.55
2022-07-31T16:55:59.461Z,6.75
2022-07-31T16:58:01.989Z,6.95
2022-07-31T17:00:08.793Z,6.68
2022-07-31T17:02:15.210Z,7.22
2022-07-31T17:04:20.914Z,7.07
2022-07-31T17:06:36.805Z,7.20
2022-07-31T17:08:44.909Z,7.38
2022-07-31T17:10:52.603Z,7.15
2022-07-31T17:12:59.037Z,7.25
2022-07-31T17:15:03.443Z,7.10
2022-07-31T17:17:10.366Z,7.38
2022-07-31T17:19:41.712Z,7.88
2022-07-31T17:21:45.558Z,7.03
2022-07-31T17:23:52.253Z,7.65
2022-07-31T17:25:58.186Z,7.47
2022-07-31T17:28:02.764Z,7.75
2022-07-31T17:30:12.267Z,7.70
2022-07-31T17:32:19.024Z,7.97
2022-07-31T17:34:23.617Z,7.60
2022-07-31T17:36:30.267Z,8.07
2022-07-31T17:38:36.965Z,7.93
2022-07-31T17:40:43.940Z,8.10
2022-07-31T17:42:48.863Z,7.50
2022-07-31T17:44:56.570Z,7.85
2022-07-31T17:47:03.818Z,8.38
2022-07-31T17:49:12.246Z,7.82
2022-07-31T17:51:25.819Z,8.15
2022-07-31T17:53:54.655Z,7.55
2022-07-31T17:55:55.925Z,7.40
2022-07-31T17:58:02.494Z,8.30
2022-07-31T18:00:09.253Z,7.43
2022-07-31T18:02:16.187Z,7.43
2022-07-31T18:04:25.577Z,6.82
2022-07-31T18:06:31.093Z,6.28
2022-07-31T18:08:37.907Z,6.90
2022-07-31T18:10:54.060Z,6.07
2022-07-31T18:13:02.447Z,6.07
2022-07-31T18:15:10.843Z,5.45
2022-07-31T18:17:18.008Z,5.93
2022-07-31T18:19:23.009Z,5.20
2022-07-31T18:21:29.549Z,4.90
2022-07-31T18:23:34.022Z,5.38
2022-07-31T18:25:38.842Z,5.47
2022-07-31T18:27:47.955Z,5.93
2022-07-31T18:29:56.434Z,5.28
2022-07-31T18:32:03.422Z,5.47
2022-07-31T18:34:10.618Z,6.18
2022-07-31T18:36:18.508Z,5.35
2022-07-31T18:38:24.343Z,5.20
2022-07-31T18:40:31.314Z,5.50
2022-07-31T18:42:37.653Z,5.85
2022-07-31T18:44:43.161Z,5.97
2022-07-31T18:46:47.931Z,5.85
2022-07-31T18:48:56.631Z,6.38
2022-07-31T18:51:05.533Z,5.80
2022-07-31T18:53:12.310Z,5.80
2022-07-31T18:55:18.937Z,6.32
2022-07-31T18:57:23.911Z,6.63
2022-07-31T18:59:31.931Z,6.63
2022-07-31T19:01:38.390Z,6.22
2022-07-31T19:03:48.609Z,7.00
2022-07-31T19:05:57.696Z,6.28
2022-07-31T19:08:06.421Z,6.45
2022-07-31T19:10:10.874Z,6.38
2022-07-31T19:14:41.282Z,6.43
2022-07-31T19:16:46.331Z,5.78
2022-07-31T19:18:56.664Z,6.03
2022-07-31T19:21:21.236Z,5.53
2022-07-31T19:23:29.318Z,5.07
2022-07-31T19:25:53.966Z,4.68
2022-07-31T19:28:03.924Z,4.45
2022-07-31T19:30:10.701Z,4.13
2022-07-31T19:32:17.135Z,4.55
2022-07-31T19:34:24.587Z,4.28
2022-07-31T19:36:30.107Z,3.88
2022-07-31T19:38:39.471Z,4.25
2022-07-31T19:40:44.068Z,4.40
2022-07-31T19:42:48.860Z,4.00
2022-07-31T19:44:55.353Z,4.90
2022-07-31T19:47:02.930Z,5.45
2022-07-31T19:49:07.477Z,5.38
2022-07-31T19:51:15.372Z,5.78
2022-07-31T19:53:22.168Z,6.32
2022-07-31T19:55:28.055Z,6.53
2022-07-31T19:57:43.835Z,6.90
2022-07-31T19:59:50.998Z,6.90
2022-07-31T20:01:55.362Z,6.40
2022-07-31T20:04:01.799Z,7.13
2022-07-31T20:06:08.264Z,6.78
2022-07-31T20:08:13.254Z,6.88
2022-07-31T20:10:19.606Z,7.13
2022-07-31T20:12:26.495Z,6.93
2022-07-31T20:14:31.201Z,7.30
2022-07-31T20:16:37.919Z,8.10
2022-07-31T20:18:43.100Z,7.30
2022-07-31T20:20:47.558Z,7.13
2022-07-31T20:22:54.570Z,7.20
2022-07-31T20:25:00.951Z,7.15
2022-07-31T20:27:16.438Z,7.90
2022-07-31T20:29:26.379Z,7.25
2022-07-31T20:31:32.991Z,7.13
2022-07-31T20:33:39.246Z,7.95
2022-07-31T20:35:48.938Z,7.32
2022-07-31T20:37:56.750Z,8.68
2022-07-31T20:40:01.957Z,8.45
2022-07-31T20:42:07.189Z,8.45
2022-07-31T20:44:14.061Z,8.63
2022-07-31T20:46:19.282Z,10.45
2022-07-31T20:48:27.171Z,8.90
2022-07-31T20:50:33.583Z,8.38
2022-07-31T20:52:38.647Z,7.90
2022-07-31T20:54:45.156Z,6.85
2022-07-31T20:56:51.412Z,7.38
2022-07-31T20:58:56.031Z,6.85
2022-07-31T21:01:02.575Z,6.32
2022-07-31T21:03:09.025Z,6.40
2022-07-31T21:05:13.435Z,5.60
2022-07-31T21:07:33.939Z,7.20
2022-07-31T21:09:41.986Z,6.20
2022-07-31T21:11:46.360Z,6.15
2022-07-31T21:13:53.156Z,6.18
2022-07-31T21:16:01.573Z,5.70
2022-07-31T21:18:06.724Z,5.47
2022-07-31T21:20:14.016Z,5.38
2022-07-31T21:22:20.629Z,5.65
2022-07-31T21:24:25.348Z,5.72
2022-07-31T21:26:32.701Z,5.45
2022-07-31T21:28:37.963Z,4.60
2022-07-31T21:30:42.614Z,5.40
2022-07-31T21:32:49.524Z,5.47
2022-07-31T21:34:58.541Z,5.43
2022-07-31T21:37:03.471Z,4.90
2022-07-31T21:39:18.554Z,5.05
2022-07-31T21:41:25.687Z,6.47
2022-07-31T21:43:37.205Z,5.95
2022-07-31T21:46:02.012Z,5.57
2022-07-31T21:48:14.199Z,5.43
2022-07-31T21:50:28.760Z,6.05
2022-07-31T21:52:33.819Z,6.30
2022-07-31T21:54:40.892Z,6.25
2022-07-31T21:56:45.329Z,6.05
2022-07-31T21:58:52.004Z,5.93
2022-07-31T22:00:58.416Z,5.88
2022-07-31T22:03:03.956Z,5.97
2022-07-31T22:05:23.358Z,6.03
2022-07-31T22:07:33.758Z,5.68
2022-07-31T22:09:38.776Z,6.50
2022-07-31T22:12:00.076Z,6.60
2022-07-31T22:14:09.730Z,5.95
2022-07-31T22:16:13.960Z,5.85
2022-07-31T22:18:20.867Z,5.82
2022-07-31T22:20:27.109Z,5.30
2022-07-31T22:22:31.812Z,5.63
2022-07-31T22:24:38.306Z,6.07
2022-07-31T22:27:02.470Z,6.93
2022-07-31T22:29:07.664Z,8.40
2022-07-31T22:31:14.145Z,8.52
2022-07-31T22:33:20.405Z,8.38
2022-07-31T22:35:27.226Z,7.90
2022-07-31T22:37:34.490Z,8.35
2022-07-31T22:39:40.833Z,9.20
2022-07-31T22:41:45.674Z,8.48
2022-07-31T22:44:13.951Z,8.80
2022-07-31T22:46:17.044Z,7.45
2022-07-31T22:48:22.770Z,7.40
2022-07-31T22:50:29.421Z,7.57
2022-07-31T22:52:36.807Z,7.65
2022-07-31T22:54:42.042Z,7.95
2022-07-31T22:56:48.837Z,7.13
2022-07-31T22:58:55.897Z,7.22
2022-07-31T23:01:00.472Z,6.90
2022-07-31T23:03:07.501Z,7.13
2022-07-31T23:05:13.882Z,8.13
2022-07-31T23:07:18.910Z,7.88
2022-07-31T23:09:26.452Z,7.70
2022-07-31T23:11:31.583Z,7.22
2022-07-31T23:13:36.010Z,6.93
2022-07-31T23:15:41.875Z,7.07
2022-07-31T23:17:48.252Z,7.35
2022-07-31T23:19:54.331Z,6.55
2022-07-31T23:22:01.241Z,6.22
2022-07-31T23:24:08.248Z,6.30
2022-07-31T23:26:12.791Z,6.40
2022-07-31T23:28:19.439Z,6.15
2022-07-31T23:30:25.299Z,6.10
2022-07-31T23:32:29.904Z,5.60
2022-07-31T23:34:37.426Z,5.40
2022-07-31T23:36:46.679Z,5.53
2022-07-31T23:38:52.630Z,5.47
2022-07-31T23:40:59.323Z,5.45
2022-07-31T23:43:05.819Z,5.65
2022-07-31T23:45:12.267Z,5.13
2022-07-31T23:47:19.307Z,5.43
2022-07-31T23:49:24.311Z,5.25
2022-07-31T23:51:28.749Z,6.72
2022-07-31T23:53:33.269Z,6.70
2022-07-31T23:55:42.856Z,6.38
2022-07-31T23:57:47.621Z,7.07
2022-07-31T23:59:54.267Z,6.72
